Time;durP1;ratioP1;P1;durP2;ratioP2;P2;SDS_P1;SDS_P2;PMS_P1;PMS_P2;Temp;Humidity;BMP_temperature;BMP_pressure;BME280_temperature;BME280_humidity;BME280_pressure;Samples;Min_cycle;Max_cycle;Signal;HPM_P1;HPM_P2
2022/08/14 00:00:31;;;;;;;10.23;9.33;;;22.60;99.90;;;;;;5102020;28;20527;-82
2022/08/14 00:03:24;;;;;;;12.97;10.20;;;22.50;99.90;;;;;;5101586;28;20434;-83
2022/08/14 00:06:09;;;;;;;18.43;9.73;;;22.50;99.90;;;;;;5101476;28;20466;-82
2022/08/14 00:08:54;;;;;;;15.73;10.53;;;22.40;99.90;;;;;;5107939;28;20746;-82
2022/08/14 00:11:38;;;;;;;11.70;10.50;;;22.30;99.90;;;;;;5098973;28;20442;-82
2022/08/14 00:14:26;;;;;;;10.33;9.33;;;22.40;99.90;;;;;;5099421;28;20438;-81
2022/08/14 00:17:10;;;;;;;11.43;10.23;;;22.40;99.90;;;;;;5099115;28;20459;-81
2022/08/14 00:19:54;;;;;;;12.17;10.80;;;22.40;99.90;;;;;;5099073;28;20874;-81
2022/08/14 00:22:39;;;;;;;11.60;10.40;;;22.40;99.90;;;;;;5099635;28;20407;-81
2022/08/14 00:25:25;;;;;;;11.07;10.00;;;22.30;99.90;;;;;;5099637;28;20501;-81
2022/08/14 00:28:12;;;;;;;10.60;9.70;;;22.20;99.90;;;;;;5098972;28;20379;-82
2022/08/14 00:30:58;;;;;;;11.17;10.13;;;22.20;99.90;;;;;;5099464;28;20445;-80
2022/08/14 00:33:43;;;;;;;11.20;10.03;;;22.10;99.90;;;;;;5098713;28;20408;-80
2022/08/14 00:36:28;;;;;;;14.67;10.40;;;22.00;99.90;;;;;;5098740;28;20385;-80
2022/08/14 00:39:14;;;;;;;11.27;10.27;;;22.00;99.90;;;;;;5099810;28;20399;-82
2022/08/14 00:41:58;;;;;;;10.67;9.67;;;22.00;99.90;;;;;;5098399;28;20429;-80
2022/08/14 00:44:43;;;;;;;12.47;10.10;;;22.00;99.90;;;;;;5099376;28;20446;-80
2022/08/14 00:47:27;;;;;;;10.63;9.53;;;22.00;99.90;;;;;;5098929;28;20776;-80
2022/08/14 00:50:17;;;;;;;13.03;11.73;;;21.90;99.90;;;;;;5099051;28;20431;-81
2022/08/14 00:53:02;;;;;;;11.90;10.67;;;21.90;99.90;;;;;;5098360;28;20380;-81
2022/08/14 00:55:48;;;;;;;10.87;9.87;;;21.90;99.90;;;;;;5098459;28;20901;-79
2022/08/14 00:58:33;;;;;;;10.90;9.80;;;21.90;99.90;;;;;;5098308;28;20388;-81
2022/08/14 01:01:18;;;;;;;11.63;10.47;;;21.80;99.90;;;;;;5098480;28;20388;-81
2022/08/14 01:04:03;;;;;;;10.57;9.63;;;21.80;99.90;;;;;;5097750;28;20392;-79
2022/08/14 01:06:50;;;;;;;10.87;9.97;;;21.70;99.90;;;;;;5097991;28;20522;-80
2022/08/14 01:09:36;;;;;;;12.60;11.40;;;21.70;99.90;;;;;;5097995;28;20368;-79
2022/08/14 01:12:22;;;;;;;12.40;11.20;;;21.70;99.90;;;;;;5097750;28;20876;-81
2022/08/14 01:15:08;;;;;;;13.57;11.07;;;21.70;99.90;;;;;;5098878;28;20384;-80
2022/08/14 01:21:03;;;;;;;12.80;11.60;;;21.60;99.90;;;;;;5098085;28;20768;-81
2022/08/14 01:23:52;;;;;;;12.43;11.23;;;21.60;99.90;;;;;;5097843;28;20384;-80
2022/08/14 01:26:36;;;;;;;11.27;10.23;;;21.60;99.90;;;;;;5097632;28;20443;-79
2022/08/14 01:29:21;;;;;;;12.97;11.70;;;21.60;99.90;;;;;;5098081;28;20888;-80
2022/08/14 01:32:05;;;;;;;11.03;9.93;;;21.50;99.90;;;;;;5098504;28;20380;-80
2022/08/14 01:34:53;;;;;;;11.70;10.47;;;21.50;99.90;;;;;;5097817;28;20733;-81
2022/08/14 01:37:37;;;;;;;12.90;11.53;;;21.50;99.90;;;;;;5082481;28;20427;-79
2022/08/14 01:40:23;;;;;;;13.07;11.90;;;21.50;99.90;;;;;;5102301;28;20407;-79
2022/08/14 01:43:14;;;;;;;11.77;10.67;;;21.50;99.90;;;;;;5101671;28;20753;-79
2022/08/14 01:45:59;;;;;;;12.57;11.37;;;21.50;99.90;;;;;;5101566;28;20474;-80
2022/08/14 01:48:45;;;;;;;13.07;11.70;;;21.50;99.90;;;;;;5101901;28;20685;-81
2022/08/14 01:51:30;;;;;;;10.87;9.87;;;21.40;99.90;;;;;;5102744;28;20420;-80
2022/08/14 01:54:20;;;;;;;10.03;9.07;;;21.40;99.90;;;;;;5102961;28;20737;-81
2022/08/14 01:57:09;;;;;;;12.27;10.23;;;21.50;99.90;;;;;;5102532;28;20428;-79
2022/08/14 01:59:55;;;;;;;11.33;10.23;;;21.40;99.90;;;;;;5102803;28;20391;-81
2022/08/14 02:02:41;;;;;;;12.60;11.40;;;21.40;99.90;;;;;;5088279;28;20396;-82
2022/08/14 02:05:28;;;;;;;11.30;10.20;;;21.40;99.90;;;;;;5087258;28;20455;-81
2022/08/14 02:08:12;;;;;;;14.87;10.97;;;21.40;99.90;;;;;;5103150;28;20396;-81
2022/08/14 02:14:04;;;;;;;11.40;10.23;;;21.30;99.90;;;;;;5103132;28;20447;-81
2022/08/14 02:16:51;;;;;;;12.67;11.40;;;21.30;99.90;;;;;;5103642;28;20435;-80
2022/08/14 02:19:36;;;;;;;12.10;10.70;;;21.30;99.90;;;;;;5103428;28;20393;-81
2022/08/14 02:22:20;;;;;;;12.27;10.97;;;21.20;99.90;;;;;;5103155;28;20380;-81
2022/08/14 02:25:05;;;;;;;17.13;11.23;;;21.20;99.90;;;;;;5103535;28;20566;-81
2022/08/14 02:27:50;;;;;;;13.17;11.77;;;21.20;99.90;;;;;;5102779;28;20383;-81
2022/08/14 02:30:34;;;;;;;11.77;10.67;;;21.10;99.90;;;;;;5103464;28;20410;-81
2022/08/14 02:33:20;;;;;;;12.37;11.07;;;21.20;99.90;;;;;;5102627;28;20407;-81
2022/08/14 02:36:04;;;;;;;12.50;11.30;;;21.10;99.90;;;;;;5102807;28;20391;-81
2022/08/14 02:38:49;;;;;;;11.70;10.67;;;21.10;99.90;;;;;;5087604;28;20422;-81
2022/08/14 02:41:35;;;;;;;11.83;10.73;;;21.10;99.90;;;;;;5087485;28;20384;-81
2022/08/14 02:44:22;;;;;;;11.80;10.03;;;21.00;99.90;;;;;;5102955;28;20447;-80
2022/08/14 02:47:07;;;;;;;13.57;12.27;;;21.10;99.90;;;;;;5103014;28;20393;-81
2022/08/14 02:49:51;;;;;;;11.30;10.00;;;21.00;99.90;;;;;;5102660;28;20438;-81
2022/08/14 02:52:36;;;;;;;13.20;12.00;;;21.00;99.90;;;;;;5102713;28;20422;-81
2022/08/14 02:55:21;;;;;;;13.87;12.03;;;21.00;99.90;;;;;;5102440;28;20380;-81
2022/08/14 02:58:06;;;;;;;12.17;10.97;;;20.90;99.90;;;;;;5087462;28;20388;-82
2022/08/14 03:00:50;;;;;;;11.67;10.53;;;20.80;99.90;;;;;;5102789;28;20507;-79
2022/08/14 03:03:36;;;;;;;12.73;10.60;;;20.80;99.90;;;;;;5104067;28;20414;-79
2022/08/14 03:06:23;;;;;;;13.13;11.93;;;20.80;99.90;;;;;;5102469;28;20431;-79
2022/08/14 03:09:10;;;;;;;13.10;11.90;;;20.80;99.90;;;;;;5099923;28;20462;-81
2022/08/14 03:11:54;;;;;;;13.43;12.10;;;20.70;99.90;;;;;;5099571;28;20464;-79
2022/08/14 03:14:44;;;;;;;13.70;12.27;;;20.60;99.90;;;;;;5100134;28;20392;-81
2022/08/14 03:17:30;;;;;;;13.20;12.00;;;20.60;99.90;;;;;;5100351;28;20412;-79
2022/08/14 03:20:14;;;;;;;13.47;12.07;;;20.60;99.90;;;;;;5099867;28;20391;-84
2022/08/14 03:22:59;;;;;;;13.83;12.43;;;20.60;99.90;;;;;;5100756;28;20445;-79
2022/08/14 03:25:45;;;;;;;12.00;10.80;;;20.60;99.90;;;;;;5099926;28;20436;-80
2022/08/14 03:28:29;;;;;;;13.93;12.47;;;20.60;99.90;;;;;;5100208;28;20443;-80
2022/08/14 03:31:15;;;;;;;14.70;13.20;;;20.50;99.90;;;;;;5100520;28;20380;-80
2022/08/14 03:34:00;;;;;;;13.10;11.70;;;20.50;99.90;;;;;;5100873;28;20375;-80
2022/08/14 03:36:44;;;;;;;13.27;11.97;;;20.40;99.90;;;;;;5100496;28;20438;-80
2022/08/14 03:39:28;;;;;;;12.97;11.73;;;20.40;99.90;;;;;;5100356;28;20412;-81
2022/08/14 03:42:12;;;;;;;14.50;13.00;;;20.30;99.90;;;;;;5099899;28;20396;-80
2022/08/14 03:44:57;;;;;;;13.67;12.13;;;20.30;99.90;;;;;;5084822;28;20428;-81
2022/08/14 03:47:43;;;;;;;13.00;11.70;;;20.30;99.90;;;;;;5115598;28;20439;-80
2022/08/14 03:50:28;;;;;;;13.33;11.93;;;20.30;99.90;;;;;;5120092;28;20414;-79
2022/08/14 03:53:14;;;;;;;13.87;12.43;;;20.40;99.90;;;;;;5113946;28;20391;-80
2022/08/14 03:56:18;;;;;;;14.60;11.30;;;20.30;99.90;;;;;;5130546;27;20414;-81
2022/08/14 03:59:07;;;;;;;13.83;12.30;;;20.30;99.90;;;;;;5058148;28;20401;-81
2022/08/14 04:01:51;;;;;;;14.10;12.67;;;20.30;99.90;;;;;;5059796;28;20441;-80
2022/08/14 04:04:36;;;;;;;15.23;13.73;;;20.30;99.90;;;;;;5058811;28;20440;-81
2022/08/14 04:07:21;;;;;;;14.90;13.50;;;20.30;99.90;;;;;;5059239;28;20732;-80
2022/08/14 04:10:06;;;;;;;14.27;12.83;;;20.30;99.90;;;;;;5058678;28;20820;-81
2022/08/14 04:12:51;;;;;;;13.70;12.30;;;20.20;99.90;;;;;;5059529;28;20402;-80
2022/08/14 04:15:35;;;;;;;15.27;13.77;;;20.20;99.90;;;;;;5058706;28;20424;-81
2022/08/14 04:18:20;;;;;;;13.77;12.47;;;20.20;99.90;;;;;;5058482;28;20436;-78
2022/08/14 04:21:04;;;;;;;12.70;11.40;;;20.00;99.90;;;;;;5058365;28;20432;-81
2022/08/14 04:23:51;;;;;;;14.33;12.80;;;19.90;99.90;;;;;;5059598;28;20401;-81
2022/08/14 04:26:36;;;;;;;14.57;13.10;;;20.00;99.90;;;;;;5059397;28;20469;-81
2022/08/14 04:29:20;;;;;;;14.97;13.57;;;20.00;99.90;;;;;;5079867;28;20487;-81
2022/08/14 04:32:07;;;;;;;14.63;13.27;;;20.00;99.90;;;;;;5107110;28;20394;-81
2022/08/14 04:34:53;;;;;;;14.23;12.40;;;20.00;99.90;;;;;;5122953;28;20734;-81
2022/08/14 04:43:41;;;;;;;14.43;13.10;;;20.00;99.90;;;;;;5108250;28;20455;-81
2022/08/14 04:46:27;;;;;;;15.07;13.03;;;20.00;99.90;;;;;;5105961;28;20443;-80
2022/08/14 04:49:12;;;;;;;13.03;11.60;;;19.90;99.90;;;;;;5106160;28;20388;-79
2022/08/14 04:51:59;;;;;;;14.43;12.90;;;19.90;99.90;;;;;;5106894;28;20698;-79
2022/08/14 04:54:43;;;;;;;13.60;12.07;;;19.90;99.90;;;;;;5089510;28;20387;-80
2022/08/14 04:57:28;;;;;;;13.60;12.50;;;20.00;99.90;;;;;;5102294;28;20424;-79
2022/08/14 05:00:12;;;;;;;14.23;12.93;;;20.00;99.90;;;;;;5101355;28;20400;-81
2022/08/14 05:02:56;;;;;;;14.33;13.10;;;19.90;99.90;;;;;;5101297;28;20760;-81
2022/08/14 05:05:40;;;;;;;16.00;13.10;;;19.90;99.90;;;;;;5100266;28;20443;-80
2022/08/14 05:08:25;;;;;;;14.30;12.80;;;20.00;99.90;;;;;;5099713;28;20380;-81
2022/08/14 05:11:09;;;;;;;13.67;12.27;;;20.00;99.90;;;;;;5099941;28;20375;-81
2022/08/14 05:13:55;;;;;;;15.80;13.30;;;20.10;99.90;;;;;;5086010;28;20384;-82
2022/08/14 05:16:39;;;;;;;13.83;12.30;;;20.20;99.90;;;;;;5103285;28;20402;-81
2022/08/14 05:19:26;;;;;;;15.80;12.80;;;20.20;99.90;;;;;;5103319;28;20452;-81
2022/08/14 05:22:10;;;;;;;15.00;12.63;;;20.30;99.90;;;;;;5103297;28;20392;-80
2022/08/14 05:24:54;;;;;;;15.20;13.10;;;20.40;99.90;;;;;;5103647;28;20438;-81
2022/08/14 05:27:39;;;;;;;25.03;14.13;;;20.50;99.90;;;;;;5102374;28;20468;-80
2022/08/14 05:30:24;;;;;;;16.13;12.20;;;20.60;99.90;;;;;;5101381;28;20380;-80
2022/08/14 05:33:08;;;;;;;14.30;12.80;;;20.60;99.90;;;;;;5101895;28;20376;-80
2022/08/14 05:36:02;;;;;;;13.43;12.20;;;20.60;99.90;;;;;;5101797;28;20793;-81
2022/08/14 05:38:47;;;;;;;14.63;12.40;;;20.60;99.90;;;;;;5102101;28;20434;-80
2022/08/14 05:41:33;;;;;;;13.67;12.10;;;20.80;99.90;;;;;;5101365;28;20438;-79
2022/08/14 05:44:17;;;;;;;14.50;13.00;;;20.90;99.90;;;;;;5101498;28;20502;-81
2022/08/14 05:47:02;;;;;;;13.50;11.97;;;21.00;99.90;;;;;;5102342;28;20954;-79
2022/08/14 05:49:47;;;;;;;13.80;12.60;;;21.10;99.90;;;;;;5101611;28;20422;-81
2022/08/14 05:52:31;;;;;;;13.17;11.90;;;21.20;99.90;;;;;;5101665;28;20384;-81
2022/08/14 05:55:16;;;;;;;14.27;12.87;;;21.30;99.90;;;;;;5101671;28;20376;-81
2022/08/14 05:58:03;;;;;;;14.77;13.37;;;21.40;99.90;;;;;;5101332;28;20404;-80
2022/08/14 06:00:48;;;;;;;14.80;13.30;;;21.40;99.90;;;;;;5100795;28;20399;-82
2022/08/14 06:03:33;;;;;;;12.67;11.37;;;21.40;99.90;;;;;;5100974;28;20385;-80
2022/08/14 06:06:18;;;;;;;13.37;12.10;;;21.50;99.90;;;;;;5100372;28;20455;-80
2022/08/14 06:09:02;;;;;;;12.27;11.07;;;21.50;99.90;;;;;;5100766;28;20396;-80
2022/08/14 06:11:47;;;;;;;13.00;11.73;;;21.60;99.90;;;;;;5101134;28;20939;-80
2022/08/14 06:14:31;;;;;;;13.87;11.77;;;21.60;99.90;;;;;;5100129;28;20380;-82
2022/08/14 06:17:15;;;;;;;14.07;11.50;;;21.70;99.90;;;;;;5100590;28;20480;-80
2022/08/14 06:19:59;;;;;;;13.10;11.60;;;21.80;99.90;;;;;;5101112;28;20473;-80
2022/08/14 06:22:45;;;;;;;13.03;11.63;;;21.90;99.90;;;;;;5100341;28;20734;-79
2022/08/14 06:25:30;;;;;;;13.93;11.93;;;22.00;99.90;;;;;;5100187;28;20451;-80
2022/08/14 06:28:18;;;;;;;13.53;11.17;;;22.00;99.90;;;;;;5101388;28;20392;-81
2022/08/14 06:31:03;;;;;;;13.00;11.10;;;22.00;99.90;;;;;;5100655;28;20919;-81
2022/08/14 06:33:48;;;;;;;12.17;10.67;;;22.00;99.90;;;;;;5101113;28;20720;-80
2022/08/14 06:36:37;;;;;;;12.77;11.47;;;22.00;99.90;;;;;;5100898;28;20409;-82
2022/08/14 06:39:22;;;;;;;12.10;10.90;;;22.00;99.90;;;;;;5101505;28;20419;-82
2022/08/14 06:42:07;;;;;;;11.60;10.43;;;22.10;99.90;;;;;;5085086;28;20461;-80
2022/08/14 06:44:52;;;;;;;12.13;10.97;;;22.00;99.90;;;;;;5100429;28;20443;-80
2022/08/14 06:47:39;;;;;;;10.13;9.13;;;22.00;99.90;;;;;;5100069;28;20391;-80
2022/08/14 06:50:24;;;;;;;12.80;11.43;;;22.30;99.90;;;;;;5100168;28;20396;-80
2022/08/14 06:53:08;;;;;;;11.00;9.80;;;22.40;99.90;;;;;;5099877;28;20923;-82
2022/08/14 06:55:53;;;;;;;9.93;8.93;;;22.20;99.90;;;;;;5099383;28;20436;-80
2022/08/14 06:58:37;;;;;;;9.20;8.27;;;22.10;99.90;;;;;;5100016;28;20388;-80
2022/08/14 07:07:23;;;;;;;9.40;8.37;;;22.10;99.90;;;;;;5099711;28;20438;-82
2022/08/14 07:10:08;;;;;;;9.90;8.90;;;22.10;99.90;;;;;;5099823;28;20422;-80
2022/08/14 07:12:53;;;;;;;9.90;9.00;;;22.30;99.90;;;;;;5101929;28;20388;-82
2022/08/14 07:15:37;;;;;;;10.17;8.60;;;22.30;99.90;;;;;;5100359;28;20380;-82
2022/08/14 07:18:26;;;;;;;9.60;8.70;;;22.30;99.90;;;;;;5086154;28;20468;-81
2022/08/14 07:21:10;;;;;;;8.20;7.40;;;22.30;99.90;;;;;;5101061;28;20371;-81
2022/08/14 07:23:55;;;;;;;9.63;8.50;;;22.40;99.90;;;;;;5100744;28;20384;-81
2022/08/14 07:26:40;;;;;;;9.00;8.00;;;22.70;99.90;;;;;;5101172;28;20517;-81
2022/08/14 07:29:24;;;;;;;8.83;7.93;;;22.80;99.90;;;;;;5101155;28;20384;-82
2022/08/14 07:32:10;;;;;;;8.57;7.87;;;22.70;99.90;;;;;;5100750;28;20541;-81
2022/08/14 07:34:54;;;;;;;9.57;8.57;;;23.00;99.90;;;;;;5101059;28;20392;-82
2022/08/14 07:37:38;;;;;;;8.63;7.27;;;23.20;99.90;;;;;;5085127;28;20431;-82
2022/08/14 07:40:22;;;;;;;8.23;7.40;;;23.20;99.90;;;;;;5101416;28;20407;-82
2022/08/14 07:43:06;;;;;;;8.20;7.40;;;23.20;99.90;;;;;;5101758;28;20456;-82
2022/08/14 07:45:51;;;;;;;8.20;7.40;;;23.40;99.90;;;;;;5086563;28;20479;-80
2022/08/14 07:48:39;;;;;;;8.93;8.10;;;23.30;99.90;;;;;;5101491;28;20396;-82
2022/08/14 07:51:24;;;;;;;8.20;7.50;;;23.50;99.90;;;;;;5101750;28;20747;-80
2022/08/14 07:54:09;;;;;;;9.07;8.27;;;23.60;99.90;;;;;;5101546;28;20380;-83
2022/08/14 07:56:53;;;;;;;8.60;7.80;;;23.80;99.90;;;;;;5101140;28;20424;-80
2022/08/14 07:59:38;;;;;;;9.17;8.37;;;23.80;99.90;;;;;;5100024;28;20897;-82
2022/08/14 08:02:26;;;;;;;7.73;7.03;;;24.00;99.90;;;;;;5100390;28;20858;-82
2022/08/14 08:05:12;;;;;;;7.97;7.17;;;23.90;99.90;;;;;;5099898;28;20462;-82
2022/08/14 08:07:57;;;;;;;8.20;7.40;;;24.10;99.90;;;;;;5100195;28;20388;-81
2022/08/14 08:10:43;;;;;;;8.13;7.00;;;24.00;99.90;;;;;;5084950;28;20532;-82
2022/08/14 08:13:28;;;;;;;11.47;8.27;;;24.30;99.90;;;;;;5100294;28;20383;-82
2022/08/14 08:16:13;;;;;;;9.63;7.67;;;24.30;99.90;;;;;;5100550;28;20396;-81
2022/08/14 08:18:58;;;;;;;10.50;9.00;;;24.40;99.90;;;;;;5101000;28;20736;-81
2022/08/14 08:21:42;;;;;;;7.33;6.73;;;24.50;99.90;;;;;;5100940;28;20392;-82
2022/08/14 08:24:27;;;;;;;8.20;7.40;;;24.50;99.90;;;;;;5101303;28;20438;-82
2022/08/14 08:27:16;;;;;;;7.63;6.63;;;24.70;99.90;;;;;;5103608;28;20408;-83
2022/08/14 08:30:06;;;;;;;7.73;7.13;;;24.50;99.90;;;;;;5104336;28;20430;-81
2022/08/14 08:32:52;;;;;;;7.17;6.47;;;24.70;99.90;;;;;;5100142;28;20911;-82
2022/08/14 08:35:38;;;;;;;7.70;7.00;;;24.60;99.90;;;;;;5098383;28;20713;-81
2022/08/14 08:38:25;;;;;;;6.60;6.00;;;24.80;99.90;;;;;;5098860;28;20384;-82
2022/08/14 08:41:09;;;;;;;8.07;5.50;;;24.70;99.90;;;;;;5099132;28;20388;-83
2022/08/14 08:44:03;;;;;;;7.83;7.23;;;24.90;99.90;;;;;;5099058;28;20852;-82
2022/08/14 08:46:57;;;;;;;7.27;6.57;;;25.10;99.90;;;;;;5099282;28;20489;-81
2022/08/14 08:49:42;;;;;;;7.43;6.73;;;25.00;99.90;;;;;;5105422;28;20574;-82
2022/08/14 08:52:28;;;;;;;6.67;6.07;;;25.20;99.90;;;;;;5105661;28;20415;-82
2022/08/14 08:55:12;;;;;;;8.97;7.03;;;25.30;99.90;;;;;;5106604;28;20387;-82
2022/08/14 08:58:00;;;;;;;6.40;5.80;;;25.10;99.90;;;;;;5105900;28;20751;-82
2022/08/14 09:00:53;;;;;;;7.70;6.40;;;25.20;99.90;;;;;;5094010;28;20449;-79
2022/08/14 09:03:45;;;;;;;7.73;6.37;;;25.40;99.90;;;;;;5096652;28;20433;-79
2022/08/14 09:06:44;;;;;;;6.50;5.90;;;25.60;99.90;;;;;;5083606;28;20497;-79
2022/08/14 09:09:55;;;;;;;6.87;6.27;;;25.70;99.90;;;;;;5029368;28;20410;-79
2022/08/14 09:12:41;;;;;;;8.00;7.27;;;25.50;99.90;;;;;;5057555;28;20400;-79
2022/08/14 09:15:27;;;;;;;7.83;7.13;;;25.70;99.90;;;;;;5070030;28;20473;-79
2022/08/14 09:18:14;;;;;;;7.03;6.33;;;25.90;99.90;;;;;;5020411;28;20408;-82
2022/08/14 09:20:58;;;;;;;8.03;7.30;;;26.10;99.90;;;;;;5063232;28;20421;-83
2022/08/14 09:23:43;;;;;;;7.03;6.43;;;26.20;99.90;;;;;;5071474;28;20417;-82
2022/08/14 09:26:28;;;;;;;8.10;5.93;;;26.30;99.90;;;;;;5073249;28;20894;-80
2022/08/14 09:29:13;;;;;;;7.43;5.70;;;26.40;99.90;;;;;;5054792;28;20385;-82
2022/08/14 09:32:01;;;;;;;6.73;5.73;;;26.80;99.90;;;;;;5065836;28;20404;-82
2022/08/14 09:35:20;;;;;;;6.67;6.07;;;26.80;99.90;;;;;;5065047;28;20390;-82
2022/08/14 09:38:21;;;;;;;6.90;6.20;;;27.10;99.90;;;;;;5056955;28;20389;-81
2022/08/14 09:41:32;;;;;;;8.20;6.90;;;27.30;99.90;;;;;;5067100;28;20456;-83
2022/08/14 09:44:46;;;;;;;6.20;5.70;;;27.20;99.90;;;;;;5004713;28;20459;-81
2022/08/14 09:47:49;;;;;;;10.60;6.67;;;27.10;99.90;;;;;;5004844;28;20476;-83
2022/08/14 09:50:46;;;;;;;6.40;5.80;;;27.40;99.90;;;;;;5014601;28;20378;-82
2022/08/14 09:53:57;;;;;;;6.83;6.10;;;27.20;99.90;;;;;;5006273;28;20441;-83
2022/08/14 09:56:44;;;;;;;6.03;5.53;;;27.30;99.90;;;;;;5004877;28;20447;-83
2022/08/14 09:59:39;;;;;;;6.30;5.80;;;27.20;99.90;;;;;;4988778;28;20415;-82
2022/08/14 10:02:53;;;;;;;7.43;6.07;;;27.10;99.90;;;;;;4988066;28;20437;-82
2022/08/14 10:05:39;;;;;;;6.33;5.73;;;27.30;99.90;;;;;;5003352;28;20547;-81
2022/08/14 10:08:26;;;;;;;6.03;5.43;;;27.40;99.90;;;;;;5010702;28;20392;-79
2022/08/14 10:11:34;;;;;;;5.47;4.77;;;27.80;99.90;;;;;;5003513;28;20412;-81
2022/08/14 10:14:23;;;;;;;5.80;5.30;;;28.00;99.90;;;;;;5011754;28;20584;-79
2022/08/14 10:17:08;;;;;;;7.13;6.17;;;28.30;99.90;;;;;;5030350;28;20405;-83
2022/08/14 10:19:52;;;;;;;6.30;5.70;;;28.30;99.90;;;;;;5041718;28;20509;-83
2022/08/14 10:22:37;;;;;;;7.47;6.00;;;28.50;99.90;;;;;;5041584;28;20466;-82
2022/08/14 10:25:21;;;;;;;6.93;6.30;;;28.40;99.90;;;;;;5041884;28;20934;-82
2022/08/14 10:28:06;;;;;;;7.37;6.67;;;28.60;99.90;;;;;;5041477;28;20421;-82
2022/08/14 10:30:53;;;;;;;9.03;6.50;;;28.40;99.90;;;;;;5041922;28;20378;-82
2022/08/14 10:33:38;;;;;;;5.90;5.50;;;28.90;99.90;;;;;;5063957;28;20769;-83
2022/08/14 10:36:31;;;;;;;6.33;5.70;;;28.70;99.90;;;;;;5080653;28;20742;-84
2022/08/14 10:39:22;;;;;;;6.53;5.70;;;28.50;99.90;;;;;;5081904;28;20466;-82
2022/08/14 10:42:09;;;;;;;6.77;6.20;;;28.60;99.90;;;;;;5081089;28;20391;-82
2022/08/14 10:45:19;;;;;;;8.10;5.87;;;28.60;99.90;;;;;;5041113;28;20456;-82
2022/08/14 10:48:16;;;;;;;7.60;6.90;;;28.40;99.90;;;;;;5040899;28;20813;-83
2022/08/14 10:51:03;;;;;;;6.70;5.37;;;29.00;99.90;;;;;;5040830;28;20857;-82
2022/08/14 10:53:54;;;;;;;6.87;6.00;;;28.90;99.90;;;;;;5039591;28;20414;-80
2022/08/14 10:56:38;;;;;;;6.57;5.67;;;29.00;99.90;;;;;;5038834;28;20827;-81
2022/08/14 10:59:23;;;;;;;7.17;6.47;;;28.90;99.90;;;;;;4999334;28;20499;-82
2022/08/14 11:02:19;;;;;;;8.10;7.40;;;29.00;99.80;;;;;;5005159;28;20464;-82
2022/08/14 11:05:07;;;;;;;7.17;6.47;;;28.80;99.90;;;;;;5017687;28;20529;-81
2022/08/14 11:07:59;;;;;;;7.23;6.47;;;29.20;98.60;;;;;;5018424;28;20437;-83
2022/08/14 11:10:57;;;;;;;7.47;6.73;;;28.70;98.20;;;;;;5017351;28;20399;-82
2022/08/14 11:13:42;;;;;;;8.03;6.80;;;28.70;98.70;;;;;;5019204;28;20490;-80
2022/08/14 11:16:29;;;;;;;7.23;6.53;;;28.60;99.90;;;;;;5039438;28;20401;-81
2022/08/14 11:19:14;;;;;;;7.77;6.80;;;28.70;99.50;;;;;;5058998;28;20435;-80
2022/08/14 11:21:59;;;;;;;7.77;7.17;;;29.20;98.00;;;;;;5057666;28;20458;-82
2022/08/14 11:24:46;;;;;;;6.93;6.27;;;29.40;97.80;;;;;;5057486;28;20448;-81
2022/08/14 11:27:32;;;;;;;7.00;6.40;;;29.40;97.40;;;;;;5057812;28;20435;-81
2022/08/14 11:30:22;;;;;;;7.10;6.50;;;29.90;96.20;;;;;;5083885;28;20196;-83
2022/08/14 11:33:06;;;;;;;7.57;6.97;;;29.90;95.10;;;;;;5101198;28;20416;-82
2022/08/14 11:35:50;;;;;;;8.17;7.07;;;29.90;95.00;;;;;;5086064;28;20164;-82
2022/08/14 11:38:37;;;;;;;7.88;7.07;;;30.60;95.40;;;;;;5102242;28;20649;-82
2022/08/14 11:41:21;;;;;;;7.47;6.85;;;30.50;93.30;;;;;;5102351;28;20641;-83
2022/08/14 11:44:06;;;;;;;7.68;7.07;;;30.10;94.60;;;;;;5101756;28;20231;-81
2022/08/14 11:46:50;;;;;;;8.47;7.60;;;29.60;94.40;;;;;;5058128;28;20723;-83
2022/08/14 11:49:35;;;;;;;7.37;6.87;;;29.20;95.40;;;;;;5086146;28;20772;-82
2022/08/14 11:52:20;;;;;;;7.50;6.80;;;28.70;95.60;;;;;;5103637;28;20799;-82
2022/08/14 11:55:08;;;;;;;8.40;7.13;;;28.70;95.10;;;;;;5087492;28;20403;-80
2022/08/14 11:58:04;;;;;;;7.20;6.70;;;28.80;96.10;;;;;;5102310;28;20422;-81
2022/08/14 12:00:52;;;;;;;7.10;6.60;;;28.80;95.80;;;;;;5101122;28;20415;-82
2022/08/14 12:03:42;;;;;;;6.70;6.10;;;29.40;95.60;;;;;;5101219;28;20391;-82
2022/08/14 12:06:27;;;;;;;8.60;6.60;;;30.70;93.50;;;;;;5101626;28;20439;-81
2022/08/14 12:09:12;;;;;;;6.75;6.15;;;30.80;92.10;;;;;;5101576;28;20227;-82
2022/08/14 12:11:57;;;;;;;7.38;6.72;;;31.70;89.60;;;;;;5102427;28;20248;-81
2022/08/14 12:14:55;;;;;;;6.80;6.20;;;31.10;90.30;;;;;;5103261;28;20158;-82
2022/08/14 12:17:47;;;;;;;7.20;6.47;;;31.20;89.70;;;;;;5100950;28;20233;-81
2022/08/14 12:20:35;;;;;;;7.50;6.88;;;31.50;89.30;;;;;;5100005;28;20161;-82
2022/08/14 12:23:22;;;;;;;7.97;7.28;;;32.30;87.10;;;;;;5100910;28;20217;-82
2022/08/14 12:26:09;;;;;;;6.78;6.28;;;31.40;85.70;;;;;;5100144;28;20211;-82
2022/08/14 12:29:15;;;;;;;6.88;6.28;;;30.80;87.70;;;;;;5102262;28;20160;-83
2022/08/14 12:32:02;;;;;;;6.95;6.35;;;31.70;86.10;;;;;;5102327;28;20254;-83
2022/08/14 12:34:53;;;;;;;6.68;6.18;;;31.70;86.20;;;;;;5101777;28;20248;-83
2022/08/14 12:37:37;;;;;;;7.25;6.65;;;32.70;83.20;;;;;;5102731;28;20157;-82
2022/08/14 12:40:23;;;;;;;7.32;6.68;;;32.80;81.40;;;;;;5102464;28;20161;-83
2022/08/14 12:43:08;;;;;;;7.55;6.85;;;32.80;78.10;;;;;;5087214;28;20301;-82
2022/08/14 12:45:54;;;;;;;7.22;6.60;;;32.40;79.20;;;;;;5100971;28;20234;-81
2022/08/14 12:48:45;;;;;;;18.08;16.95;;;32.10;80.90;;;;;;5101361;28;20172;-83
2022/08/14 12:51:31;;;;;;;7.05;6.45;;;31.20;85.00;;;;;;5101374;28;20166;-81
2022/08/14 12:54:18;;;;;;;7.30;6.70;;;30.90;83.30;;;;;;5101895;28;20200;-82
2022/08/14 12:57:05;;;;;;;6.75;5.97;;;31.20;84.80;;;;;;5101645;28;20250;-83
2022/08/14 12:59:51;;;;;;;6.85;6.25;;;31.60;85.00;;;;;;5101961;28;20161;-83
2022/08/14 13:02:37;;;;;;;9.52;6.85;;;31.40;82.80;;;;;;5102400;28;20605;-83
2022/08/14 13:05:24;;;;;;;6.05;5.53;;;32.40;80.80;;;;;;5100726;28;20196;-82
2022/08/14 13:08:09;;;;;;;6.80;6.30;;;32.50;78.00;;;;;;5086524;28;20165;-83
2022/08/14 13:10:55;;;;;;;6.97;6.43;;;31.70;80.10;;;;;;5102435;28;20683;-83
2022/08/14 13:13:43;;;;;;;7.70;7.10;;;30.70;85.70;;;;;;5101173;28;20208;-82
2022/08/14 13:16:28;;;;;;;7.57;6.88;;;29.90;88.20;;;;;;5101533;28;20234;-83
2022/08/14 13:19:14;;;;;;;6.95;6.30;;;30.20;86.70;;;;;;5100455;28;20166;-81
2022/08/14 13:22:01;;;;;;;8.73;6.18;;;30.30;86.00;;;;;;5102237;28;20215;-81
2022/08/14 13:24:46;;;;;;;6.65;6.15;;;30.90;84.90;;;;;;5039378;28;20190;-80
2022/08/14 13:27:32;;;;;;;8.27;7.45;;;30.80;83.50;;;;;;5039941;28;20191;-84
2022/08/14 13:30:17;;;;;;;6.88;6.18;;;30.20;85.10;;;;;;5040776;28;20223;-83
2022/08/14 13:33:04;;;;;;;6.90;6.40;;;30.70;85.60;;;;;;5028744;28;20228;-80
2022/08/14 13:35:48;;;;;;;6.20;5.70;;;30.70;84.50;;;;;;5048135;28;20162;-81
2022/08/14 13:38:34;;;;;;;6.60;5.95;;;31.60;84.10;;;;;;5050667;28;20254;-81
2022/08/14 13:41:22;;;;;;;5.55;5.15;;;31.10;80.10;;;;;;5048220;28;20171;-83
2022/08/14 13:44:10;;;;;;;6.70;6.13;;;31.60;80.60;;;;;;5043272;28;20246;-82
2022/08/14 13:46:56;;;;;;;6.03;5.63;;;32.30;78.60;;;;;;5042307;28;20675;-84
2022/08/14 13:49:42;;;;;;;6.93;6.32;;;32.20;78.00;;;;;;5028505;28;20206;-83
2022/08/14 13:52:29;;;;;;;8.13;5.70;;;33.00;75.70;;;;;;5028863;28;20175;-81
2022/08/14 13:55:17;;;;;;;6.03;5.53;;;31.60;77.10;;;;;;5067454;28;20187;-83
2022/08/14 13:58:02;;;;;;;7.85;6.93;;;32.10;76.90;;;;;;5089608;28;20156;-83
2022/08/14 14:00:50;;;;;;;6.20;5.60;;;31.70;76.60;;;;;;5104349;28;20169;-82
2022/08/14 14:03:36;;;;;;;6.35;5.75;;;31.70;76.10;;;;;;5103509;28;20594;-83
2022/08/14 14:06:23;;;;;;;6.00;5.50;;;31.70;75.20;;;;;;5089832;28;20669;-83
2022/08/14 14:09:10;;;;;;;5.90;5.40;;;31.60;77.50;;;;;;5104318;28;20211;-82
2022/08/14 14:11:57;;;;;;;5.70;5.28;;;32.00;73.70;;;;;;5103691;28;20219;-81
2022/08/14 14:14:45;;;;;;;6.00;5.40;;;31.90;73.50;;;;;;5112721;28;20176;-82
2022/08/14 14:17:36;;;;;;;6.25;5.65;;;32.50;72.20;;;;;;5049704;28;20189;-83
2022/08/14 14:20:24;;;;;;;5.57;5.10;;;32.20;71.90;;;;;;5065707;28;20218;-83
2022/08/14 14:23:12;;;;;;;6.43;5.93;;;32.20;71.30;;;;;;5010703;28;20235;-82
2022/08/14 14:25:57;;;;;;;7.30;6.20;;;32.10;71.30;;;;;;5016585;28;20191;-81
2022/08/14 14:29:02;;;;;;;6.30;5.85;;;32.40;72.40;;;;;;5020885;28;20219;-82
2022/08/14 14:31:58;;;;;;;6.03;5.63;;;32.20;70.50;;;;;;5002377;28;20216;-83
2022/08/14 14:35:09;;;;;;;6.38;5.80;;;32.20;70.20;;;;;;4980807;28;20197;-82
2022/08/14 14:37:57;;;;;;;6.85;6.15;;;32.40;69.80;;;;;;4947317;29;20183;-83